sensor_id;sensor_type;location;lat;lon;timestamp;P1;durP1;ratioP1;P2;durP2;ratioP2
69305;SDS011;56427;51.580;4.656;2022-07-29T00:00:08;4.47;;;2.13;;
69305;SDS011;56427;51.580;4.656;2022-07-29T00:02:34;7.53;;;2.45;;
69305;SDS011;56427;51.580;4.656;2022-07-29T00:05:00;5.63;;;2.40;;
69305;SDS011;56427;51.580;4.656;2022-07-29T00:07:26;5.75;;;2.10;;
69305;SDS011;56427;51.580;4.656;2022-07-29T00:09:51;6.93;;;2.00;;
69305;SDS011;56427;51.580;4.656;2022-07-29T00:12:17;4.13;;;2.37;;
69305;SDS011;56427;51.580;4.656;2022-07-29T00:14:43;6.30;;;2.15;;
69305;SDS011;56427;51.580;4.656;2022-07-29T00:17:08;5.77;;;1.90;;
69305;SDS011;56427;51.580;4.656;2022-07-29T00:19:34;4.80;;;2.25;;
69305;SDS011;56427;51.580;4.656;2022-07-29T00:21:59;3.37;;;1.80;;
69305;SDS011;56427;51.580;4.656;2022-07-29T00:24:25;3.08;;;1.77;;
69305;SDS011;56427;51.580;4.656;2022-07-29T00:26:50;6.80;;;1.70;;
69305;SDS011;56427;51.580;4.656;2022-07-29T00:29:16;5.40;;;2.17;;
69305;SDS011;56427;51.580;4.656;2022-07-29T00:31:41;4.03;;;1.90;;
69305;SDS011;56427;51.580;4.656;2022-07-29T00:34:06;4.83;;;1.93;;
69305;SDS011;56427;51.580;4.656;2022-07-29T00:36:52;5.65;;;1.70;;
69305;SDS011;56427;51.580;4.656;2022-07-29T00:39:17;4.67;;;2.00;;
69305;SDS011;56427;51.580;4.656;2022-07-29T00:41:42;6.70;;;1.90;;
69305;SDS011;56427;51.580;4.656;2022-07-29T00:44:08;3.63;;;1.60;;
69305;SDS011;56427;51.580;4.656;2022-07-29T00:46:33;6.00;;;1.90;;
69305;SDS011;56427;51.580;4.656;2022-07-29T00:48:58;4.87;;;1.87;;
69305;SDS011;56427;51.580;4.656;2022-07-29T00:51:24;5.88;;;1.88;;
69305;SDS011;56427;51.580;4.656;2022-07-29T00:53:51;7.63;;;2.13;;
69305;SDS011;56427;51.580;4.656;2022-07-29T00:56:17;5.00;;;2.10;;
69305;SDS011;56427;51.580;4.656;2022-07-29T00:58:43;4.25;;;1.80;;
69305;SDS011;56427;51.580;4.656;2022-07-29T01:01:11;4.65;;;1.75;;
69305;SDS011;56427;51.580;4.656;2022-07-29T01:03:37;4.50;;;2.37;;
69305;SDS011;56427;51.580;4.656;2022-07-29T01:06:02;4.17;;;2.00;;
69305;SDS011;56427;51.580;4.656;2022-07-29T01:08:29;4.60;;;1.75;;
69305;SDS011;56427;51.580;4.656;2022-07-29T01:10:56;4.63;;;2.10;;
69305;SDS011;56427;51.580;4.656;2022-07-29T01:13:21;5.10;;;2.17;;
69305;SDS011;56427;51.580;4.656;2022-07-29T01:15:49;6.68;;;1.90;;
69305;SDS011;56427;51.580;4.656;2022-07-29T01:18:28;4.00;;;1.77;;
69305;SDS011;56427;51.580;4.656;2022-07-29T01:29:04;4.70;;;1.80;;
69305;SDS011;56427;51.580;4.656;2022-07-29T01:34:20;5.70;;;2.20;;
69305;SDS011;56427;51.580;4.656;2022-07-29T01:37:22;5.47;;;2.17;;
69305;SDS011;56427;51.580;4.656;2022-07-29T01:39:51;3.63;;;2.10;;
69305;SDS011;56427;51.580;4.656;2022-07-29T01:44:52;6.00;;;2.35;;
69305;SDS011;56427;51.580;4.656;2022-07-29T01:47:20;5.25;;;1.92;;
69305;SDS011;56427;51.580;4.656;2022-07-29T01:49:51;5.90;;;2.03;;
69305;SDS011;56427;51.580;4.656;2022-07-29T01:52:27;4.47;;;1.60;;
69305;SDS011;56427;51.580;4.656;2022-07-29T01:54:55;3.43;;;1.93;;
69305;SDS011;56427;51.580;4.656;2022-07-29T01:57:26;5.15;;;1.77;;
69305;SDS011;56427;51.580;4.656;2022-07-29T01:59:54;3.85;;;1.90;;
69305;SDS011;56427;51.580;4.656;2022-07-29T02:02:22;4.68;;;2.00;;
69305;SDS011;56427;51.580;4.656;2022-07-29T02:04:48;6.15;;;2.10;;
69305;SDS011;56427;51.580;4.656;2022-07-29T02:07:16;5.10;;;2.17;;
69305;SDS011;56427;51.580;4.656;2022-07-29T02:09:44;5.50;;;2.10;;
69305;SDS011;56427;51.580;4.656;2022-07-29T02:12:10;5.55;;;2.25;;
69305;SDS011;56427;51.580;4.656;2022-07-29T02:14:44;5.65;;;2.30;;
69305;SDS011;56427;51.580;4.656;2022-07-29T02:17:12;4.15;;;2.08;;
69305;SDS011;56427;51.580;4.656;2022-07-29T02:19:42;6.10;;;1.83;;
69305;SDS011;56427;51.580;4.656;2022-07-29T02:22:09;5.05;;;2.13;;
69305;SDS011;56427;51.580;4.656;2022-07-29T02:24:36;6.00;;;2.05;;
69305;SDS011;56427;51.580;4.656;2022-07-29T02:27:05;9.88;;;2.40;;
69305;SDS011;56427;51.580;4.656;2022-07-29T02:29:32;6.72;;;2.13;;
69305;SDS011;56427;51.580;4.656;2022-07-29T02:31:59;8.17;;;2.40;;
69305;SDS011;56427;51.580;4.656;2022-07-29T02:34:27;9.07;;;2.20;;
69305;SDS011;56427;51.580;4.656;2022-07-29T02:36:54;4.13;;;2.20;;
69305;SDS011;56427;51.580;4.656;2022-07-29T02:39:20;10.40;;;2.20;;
69305;SDS011;56427;51.580;4.656;2022-07-29T02:41:49;5.32;;;2.50;;
69305;SDS011;56427;51.580;4.656;2022-07-29T02:44:17;3.80;;;2.00;;
69305;SDS011;56427;51.580;4.656;2022-07-29T02:49:36;5.28;;;2.00;;
69305;SDS011;56427;51.580;4.656;2022-07-29T02:52:12;4.05;;;2.13;;
69305;SDS011;56427;51.580;4.656;2022-07-29T02:54:46;7.47;;;2.25;;
69305;SDS011;56427;51.580;4.656;2022-07-29T02:57:20;6.87;;;2.27;;
69305;SDS011;56427;51.580;4.656;2022-07-29T02:59:59;4.93;;;1.90;;
69305;SDS011;56427;51.580;4.656;2022-07-29T03:02:29;5.25;;;2.33;;
69305;SDS011;56427;51.580;4.656;2022-07-29T03:04:59;4.68;;;2.17;;
69305;SDS011;56427;51.580;4.656;2022-07-29T03:07:26;5.03;;;2.35;;
69305;SDS011;56427;51.580;4.656;2022-07-29T03:09:52;4.77;;;2.10;;
69305;SDS011;56427;51.580;4.656;2022-07-29T03:12:18;9.25;;;2.33;;
69305;SDS011;56427;51.580;4.656;2022-07-29T03:14:44;6.85;;;2.67;;
69305;SDS011;56427;51.580;4.656;2022-07-29T03:17:11;3.85;;;2.10;;
69305;SDS011;56427;51.580;4.656;2022-07-29T03:19:36;5.00;;;2.40;;
69305;SDS011;56427;51.580;4.656;2022-07-29T03:22:03;3.55;;;1.95;;
69305;SDS011;56427;51.580;4.656;2022-07-29T03:24:36;4.33;;;2.30;;
69305;SDS011;56427;51.580;4.656;2022-07-29T03:27:02;8.20;;;2.22;;
69305;SDS011;56427;51.580;4.656;2022-07-29T03:29:28;4.53;;;2.30;;
69305;SDS011;56427;51.580;4.656;2022-07-29T03:31:53;4.90;;;2.30;;
69305;SDS011;56427;51.580;4.656;2022-07-29T03:34:19;6.40;;;3.03;;
69305;SDS011;56427;51.580;4.656;2022-07-29T03:36:45;10.50;;;2.38;;
69305;SDS011;56427;51.580;4.656;2022-07-29T03:39:11;11.25;;;2.28;;
69305;SDS011;56427;51.580;4.656;2022-07-29T03:41:40;6.47;;;2.38;;
69305;SDS011;56427;51.580;4.656;2022-07-29T03:44:07;5.45;;;2.20;;
69305;SDS011;56427;51.580;4.656;2022-07-29T03:46:33;5.07;;;2.80;;
69305;SDS011;56427;51.580;4.656;2022-07-29T03:49:02;5.15;;;2.28;;
69305;SDS011;56427;51.580;4.656;2022-07-29T03:51:29;5.38;;;2.40;;
69305;SDS011;56427;51.580;4.656;2022-07-29T03:53:55;6.20;;;2.35;;
69305;SDS011;56427;51.580;4.656;2022-07-29T03:56:21;5.10;;;2.40;;
69305;SDS011;56427;51.580;4.656;2022-07-29T03:58:51;5.65;;;2.25;;
69305;SDS011;56427;51.580;4.656;2022-07-29T04:01:18;5.85;;;2.63;;
69305;SDS011;56427;51.580;4.656;2022-07-29T04:03:45;5.25;;;2.58;;
69305;SDS011;56427;51.580;4.656;2022-07-29T04:06:11;4.87;;;2.60;;
69305;SDS011;56427;51.580;4.656;2022-07-29T04:08:36;6.22;;;2.65;;
69305;SDS011;56427;51.580;4.656;2022-07-29T04:11:02;5.18;;;2.30;;
69305;SDS011;56427;51.580;4.656;2022-07-29T04:13:29;8.63;;;2.60;;
69305;SDS011;56427;51.580;4.656;2022-07-29T04:15:55;5.07;;;2.40;;
69305;SDS011;56427;51.580;4.656;2022-07-29T04:18:20;5.70;;;2.90;;
69305;SDS011;56427;51.580;4.656;2022-07-29T04:20:45;4.30;;;2.60;;
69305;SDS011;56427;51.580;4.656;2022-07-29T04:23:11;6.63;;;2.80;;
69305;SDS011;56427;51.580;4.656;2022-07-29T04:25:37;6.60;;;3.30;;
69305;SDS011;56427;51.580;4.656;2022-07-29T04:28:04;6.03;;;2.47;;
69305;SDS011;56427;51.580;4.656;2022-07-29T04:30:30;7.07;;;2.40;;
69305;SDS011;56427;51.580;4.656;2022-07-29T04:32:56;7.65;;;2.45;;
69305;SDS011;56427;51.580;4.656;2022-07-29T04:35:22;6.13;;;2.70;;
69305;SDS011;56427;51.580;4.656;2022-07-29T04:37:47;4.53;;;2.50;;
69305;SDS011;56427;51.580;4.656;2022-07-29T04:40:13;6.37;;;2.57;;
69305;SDS011;56427;51.580;4.656;2022-07-29T04:42:38;6.30;;;2.20;;
69305;SDS011;56427;51.580;4.656;2022-07-29T04:45:04;6.70;;;2.60;;
69305;SDS011;56427;51.580;4.656;2022-07-29T04:47:30;6.13;;;2.55;;
69305;SDS011;56427;51.580;4.656;2022-07-29T04:49:56;6.47;;;2.53;;
69305;SDS011;56427;51.580;4.656;2022-07-29T04:52:21;5.67;;;2.53;;
69305;SDS011;56427;51.580;4.656;2022-07-29T04:54:47;5.45;;;2.75;;
69305;SDS011;56427;51.580;4.656;2022-07-29T04:57:13;7.53;;;2.73;;
69305;SDS011;56427;51.580;4.656;2022-07-29T04:59:38;4.47;;;2.42;;
69305;SDS011;56427;51.580;4.656;2022-07-29T05:02:04;5.27;;;2.50;;
69305;SDS011;56427;51.580;4.656;2022-07-29T05:04:29;5.03;;;2.53;;
69305;SDS011;56427;51.580;4.656;2022-07-29T05:06:54;6.43;;;2.60;;
69305;SDS011;56427;51.580;4.656;2022-07-29T05:09:19;5.57;;;2.57;;
69305;SDS011;56427;51.580;4.656;2022-07-29T05:11:45;6.20;;;2.40;;
69305;SDS011;56427;51.580;4.656;2022-07-29T05:14:10;5.97;;;3.10;;
69305;SDS011;56427;51.580;4.656;2022-07-29T05:16:35;5.50;;;2.53;;
69305;SDS011;56427;51.580;4.656;2022-07-29T05:19:02;6.13;;;2.60;;
69305;SDS011;56427;51.580;4.656;2022-07-29T05:21:27;4.97;;;2.40;;
69305;SDS011;56427;51.580;4.656;2022-07-29T05:23:53;7.57;;;2.72;;
69305;SDS011;56427;51.580;4.656;2022-07-29T05:26:18;5.97;;;2.87;;
69305;SDS011;56427;51.580;4.656;2022-07-29T05:28:44;5.03;;;2.87;;
69305;SDS011;56427;51.580;4.656;2022-07-29T05:31:09;9.57;;;3.13;;
69305;SDS011;56427;51.580;4.656;2022-07-29T05:33:34;8.57;;;3.30;;
69305;SDS011;56427;51.580;4.656;2022-07-29T05:36:00;6.38;;;2.72;;
69305;SDS011;56427;51.580;4.656;2022-07-29T05:38:25;10.33;;;2.97;;
69305;SDS011;56427;51.580;4.656;2022-07-29T05:40:51;9.00;;;3.00;;
69305;SDS011;56427;51.580;4.656;2022-07-29T05:43:16;7.10;;;3.20;;
69305;SDS011;56427;51.580;4.656;2022-07-29T05:45:41;6.00;;;2.80;;
69305;SDS011;56427;51.580;4.656;2022-07-29T05:48:06;8.93;;;2.70;;
69305;SDS011;56427;51.580;4.656;2022-07-29T05:50:32;6.25;;;3.08;;
69305;SDS011;56427;51.580;4.656;2022-07-29T05:52:57;8.70;;;3.13;;
69305;SDS011;56427;51.580;4.656;2022-07-29T05:55:23;6.20;;;2.57;;
69305;SDS011;56427;51.580;4.656;2022-07-29T05:57:48;8.60;;;3.07;;
69305;SDS011;56427;51.580;4.656;2022-07-29T06:00:13;7.27;;;2.93;;
69305;SDS011;56427;51.580;4.656;2022-07-29T06:02:39;6.85;;;3.20;;
69305;SDS011;56427;51.580;4.656;2022-07-29T06:05:04;8.93;;;3.13;;
69305;SDS011;56427;51.580;4.656;2022-07-29T06:07:30;9.73;;;2.93;;
69305;SDS011;56427;51.580;4.656;2022-07-29T06:09:57;6.50;;;3.00;;
69305;SDS011;56427;51.580;4.656;2022-07-29T06:12:23;7.63;;;3.30;;
69305;SDS011;56427;51.580;4.656;2022-07-29T06:14:48;7.43;;;3.03;;
69305;SDS011;56427;51.580;4.656;2022-07-29T06:17:13;9.50;;;2.60;;
69305;SDS011;56427;51.580;4.656;2022-07-29T06:19:41;6.13;;;2.80;;
69305;SDS011;56427;51.580;4.656;2022-07-29T06:22:06;5.40;;;3.00;;
69305;SDS011;56427;51.580;4.656;2022-07-29T06:24:31;7.07;;;3.10;;
69305;SDS011;56427;51.580;4.656;2022-07-29T06:26:57;4.70;;;2.67;;
69305;SDS011;56427;51.580;4.656;2022-07-29T06:29:22;3.83;;;2.47;;
69305;SDS011;56427;51.580;4.656;2022-07-29T06:31:47;6.10;;;3.30;;
69305;SDS011;56427;51.580;4.656;2022-07-29T06:34:13;7.23;;;3.07;;
69305;SDS011;56427;51.580;4.656;2022-07-29T06:36:38;5.60;;;2.90;;
69305;SDS011;56427;51.580;4.656;2022-07-29T06:39:07;7.70;;;2.97;;
69305;SDS011;56427;51.580;4.656;2022-07-29T06:41:33;7.30;;;3.10;;
69305;SDS011;56427;51.580;4.656;2022-07-29T06:43:59;7.93;;;3.10;;
69305;SDS011;56427;51.580;4.656;2022-07-29T06:46:24;4.57;;;2.90;;
69305;SDS011;56427;51.580;4.656;2022-07-29T06:48:50;11.27;;;3.42;;
69305;SDS011;56427;51.580;4.656;2022-07-29T06:51:17;6.97;;;3.17;;
69305;SDS011;56427;51.580;4.656;2022-07-29T06:53:42;7.03;;;3.03;;
69305;SDS011;56427;51.580;4.656;2022-07-29T06:56:07;7.90;;;3.20;;
69305;SDS011;56427;51.580;4.656;2022-07-29T06:58:33;6.10;;;2.83;;
69305;SDS011;56427;51.580;4.656;2022-07-29T07:01:00;5.13;;;3.00;;
69305;SDS011;56427;51.580;4.656;2022-07-29T07:03:26;9.45;;;3.00;;
69305;SDS011;56427;51.580;4.656;2022-07-29T07:05:52;4.73;;;2.73;;
69305;SDS011;56427;51.580;4.656;2022-07-29T07:08:18;4.73;;;2.57;;
69305;SDS011;56427;51.580;4.656;2022-07-29T07:10:44;5.40;;;2.75;;
69305;SDS011;56427;51.580;4.656;2022-07-29T07:13:10;6.88;;;2.83;;
69305;SDS011;56427;51.580;4.656;2022-07-29T07:15:36;6.80;;;3.00;;
69305;SDS011;56427;51.580;4.656;2022-07-29T07:18:02;6.55;;;3.53;;
69305;SDS011;56427;51.580;4.656;2022-07-29T07:20:28;6.93;;;2.78;;
69305;SDS011;56427;51.580;4.656;2022-07-29T07:22:54;8.33;;;3.23;;
69305;SDS011;56427;51.580;4.656;2022-07-29T07:25:19;7.35;;;2.67;;
69305;SDS011;56427;51.580;4.656;2022-07-29T07:27:45;7.67;;;2.80;;
69305;SDS011;56427;51.580;4.656;2022-07-29T07:30:11;6.40;;;3.00;;
69305;SDS011;56427;51.580;4.656;2022-07-29T07:32:36;7.03;;;2.92;;
69305;SDS011;56427;51.580;4.656;2022-07-29T07:35:03;6.90;;;3.40;;
69305;SDS011;56427;51.580;4.656;2022-07-29T07:37:29;9.37;;;3.63;;
69305;SDS011;56427;51.580;4.656;2022-07-29T07:39:54;7.15;;;2.95;;
69305;SDS011;56427;51.580;4.656;2022-07-29T07:42:20;9.37;;;3.07;;
69305;SDS011;56427;51.580;4.656;2022-07-29T07:44:45;6.97;;;2.87;;
69305;SDS011;56427;51.580;4.656;2022-07-29T07:47:14;6.10;;;3.30;;
69305;SDS011;56427;51.580;4.656;2022-07-29T07:49:44;11.52;;;3.00;;
69305;SDS011;56427;51.580;4.656;2022-07-29T07:52:10;8.77;;;3.30;;
69305;SDS011;56427;51.580;4.656;2022-07-29T07:54:35;8.53;;;3.17;;
69305;SDS011;56427;51.580;4.656;2022-07-29T07:57:00;5.20;;;2.72;;
69305;SDS011;56427;51.580;4.656;2022-07-29T07:59:26;5.60;;;3.47;;
69305;SDS011;56427;51.580;4.656;2022-07-29T08:01:51;7.70;;;3.37;;
69305;SDS011;56427;51.580;4.656;2022-07-29T08:04:17;4.00;;;3.10;;
69305;SDS011;56427;51.580;4.656;2022-07-29T08:06:42;5.43;;;3.27;;
69305;SDS011;56427;51.580;4.656;2022-07-29T08:09:07;7.17;;;3.17;;
69305;SDS011;56427;51.580;4.656;2022-07-29T08:11:33;7.15;;;3.20;;
69305;SDS011;56427;51.580;4.656;2022-07-29T08:13:58;6.97;;;3.40;;
69305;SDS011;56427;51.580;4.656;2022-07-29T08:16:26;6.38;;;3.10;;
69305;SDS011;56427;51.580;4.656;2022-07-29T08:18:51;7.80;;;3.30;;
69305;SDS011;56427;51.580;4.656;2022-07-29T08:21:21;4.97;;;3.25;;
69305;SDS011;56427;51.580;4.656;2022-07-29T08:23:48;7.70;;;3.75;;
69305;SDS011;56427;51.580;4.656;2022-07-29T08:26:17;7.65;;;3.25;;
69305;SDS011;56427;51.580;4.656;2022-07-29T08:28:43;7.05;;;3.38;;
69305;SDS011;56427;51.580;4.656;2022-07-29T08:31:11;5.53;;;3.30;;
69305;SDS011;56427;51.580;4.656;2022-07-29T08:33:37;5.88;;;3.70;;
69305;SDS011;56427;51.580;4.656;2022-07-29T08:36:03;8.18;;;2.97;;
69305;SDS011;56427;51.580;4.656;2022-07-29T08:38:29;5.87;;;3.47;;
69305;SDS011;56427;51.580;4.656;2022-07-29T08:40:54;7.27;;;3.60;;
69305;SDS011;56427;51.580;4.656;2022-07-29T08:43:20;8.10;;;3.60;;
69305;SDS011;56427;51.580;4.656;2022-07-29T08:45:46;9.60;;;3.70;;
69305;SDS011;56427;51.580;4.656;2022-07-29T08:48:13;6.50;;;3.67;;
69305;SDS011;56427;51.580;4.656;2022-07-29T08:50:44;11.13;;;3.53;;
69305;SDS011;56427;51.580;4.656;2022-07-29T08:53:14;7.30;;;3.40;;
69305;SDS011;56427;51.580;4.656;2022-07-29T08:55:48;8.30;;;3.33;;
69305;SDS011;56427;51.580;4.656;2022-07-29T08:58:15;7.07;;;3.33;;
69305;SDS011;56427;51.580;4.656;2022-07-29T09:00:43;4.63;;;3.15;;
69305;SDS011;56427;51.580;4.656;2022-07-29T09:03:12;10.05;;;3.40;;
69305;SDS011;56427;51.580;4.656;2022-07-29T09:05:42;6.85;;;3.25;;
69305;SDS011;56427;51.580;4.656;2022-07-29T09:08:08;5.53;;;3.37;;
69305;SDS011;56427;51.580;4.656;2022-07-29T09:10:35;7.15;;;3.40;;
69305;SDS011;56427;51.580;4.656;2022-07-29T09:13:00;8.57;;;3.37;;
69305;SDS011;56427;51.580;4.656;2022-07-29T09:15:26;7.53;;;3.50;;
69305;SDS011;56427;51.580;4.656;2022-07-29T09:17:51;5.10;;;3.30;;
69305;SDS011;56427;51.580;4.656;2022-07-29T09:20:17;7.50;;;3.50;;
69305;SDS011;56427;51.580;4.656;2022-07-29T09:22:49;6.75;;;3.05;;
69305;SDS011;56427;51.580;4.656;2022-07-29T09:28:15;7.28;;;2.97;;
69305;SDS011;56427;51.580;4.656;2022-07-29T09:33:15;6.70;;;3.05;;
69305;SDS011;56427;51.580;4.656;2022-07-29T09:35:41;6.77;;;3.00;;
69305;SDS011;56427;51.580;4.656;2022-07-29T09:38:13;6.65;;;2.70;;
69305;SDS011;56427;51.580;4.656;2022-07-29T09:40:39;3.43;;;2.70;;
69305;SDS011;56427;51.580;4.656;2022-07-29T09:43:11;7.53;;;3.08;;
69305;SDS011;56427;51.580;4.656;2022-07-29T09:45:37;5.35;;;2.67;;
69305;SDS011;56427;51.580;4.656;2022-07-29T09:48:16;7.33;;;2.53;;
69305;SDS011;56427;51.580;4.656;2022-07-29T09:50:43;7.05;;;2.92;;
69305;SDS011;56427;51.580;4.656;2022-07-29T09:53:11;8.23;;;2.92;;
69305;SDS011;56427;51.580;4.656;2022-07-29T09:55:46;7.10;;;2.50;;
69305;SDS011;56427;51.580;4.656;2022-07-29T10:00:46;11.18;;;3.08;;
69305;SDS011;56427;51.580;4.656;2022-07-29T10:03:13;6.50;;;2.87;;
69305;SDS011;56427;51.580;4.656;2022-07-29T10:05:40;5.68;;;2.50;;
69305;SDS011;56427;51.580;4.656;2022-07-29T10:08:07;5.53;;;2.25;;
69305;SDS011;56427;51.580;4.656;2022-07-29T10:10:35;5.30;;;2.13;;
69305;SDS011;56427;51.580;4.656;2022-07-29T10:13:07;11.85;;;2.53;;
69305;SDS011;56427;51.580;4.656;2022-07-29T10:15:35;6.83;;;2.47;;
69305;SDS011;56427;51.580;4.656;2022-07-29T10:18:04;7.20;;;2.17;;
69305;SDS011;56427;51.580;4.656;2022-07-29T10:20:30;5.45;;;2.40;;
69305;SDS011;56427;51.580;4.656;2022-07-29T10:22:55;7.17;;;2.73;;
69305;SDS011;56427;51.580;4.656;2022-07-29T10:25:21;5.68;;;2.60;;
69305;SDS011;56427;51.580;4.656;2022-07-29T10:27:47;5.30;;;2.50;;
69305;SDS011;56427;51.580;4.656;2022-07-29T10:30:14;6.13;;;2.30;;
69305;SDS011;56427;51.580;4.656;2022-07-29T10:32:46;6.97;;;2.22;;
69305;SDS011;56427;51.580;4.656;2022-07-29T10:44:21;6.20;;;2.37;;
69305;SDS011;56427;51.580;4.656;2022-07-29T10:46:49;6.97;;;1.92;;
69305;SDS011;56427;51.580;4.656;2022-07-29T10:49:25;6.32;;;2.25;;
69305;SDS011;56427;51.580;4.656;2022-07-29T10:57:04;5.50;;;1.87;;
69305;SDS011;56427;51.580;4.656;2022-07-29T10:59:38;6.35;;;2.10;;
69305;SDS011;56427;51.580;4.656;2022-07-29T11:05:18;7.50;;;2.10;;
69305;SDS011;56427;51.580;4.656;2022-07-29T11:10:38;7.27;;;2.13;;
69305;SDS011;56427;51.580;4.656;2022-07-29T11:13:04;6.78;;;1.77;;
69305;SDS011;56427;51.580;4.656;2022-07-29T11:15:29;4.57;;;1.80;;
69305;SDS011;56427;51.580;4.656;2022-07-29T11:18:18;4.32;;;1.60;;
69305;SDS011;56427;51.580;4.656;2022-07-29T11:20:48;5.27;;;2.10;;
69305;SDS011;56427;51.580;4.656;2022-07-29T11:23:22;6.50;;;2.45;;
69305;SDS011;56427;51.580;4.656;2022-07-29T11:28:51;6.03;;;1.80;;
69305;SDS011;56427;51.580;4.656;2022-07-29T11:31:33;6.20;;;2.67;;
69305;SDS011;56427;51.580;4.656;2022-07-29T11:39:45;6.70;;;2.17;;
69305;SDS011;56427;51.580;4.656;2022-07-29T11:44:56;6.50;;;2.53;;
69305;SDS011;56427;51.580;4.656;2022-07-29T11:47:30;9.70;;;2.08;;
69305;SDS011;56427;51.580;4.656;2022-07-29T11:49:58;6.10;;;1.80;;
69305;SDS011;56427;51.580;4.656;2022-07-29T11:52:37;6.75;;;2.22;;
69305;SDS011;56427;51.580;4.656;2022-07-29T11:55:11;7.33;;;2.00;;
69305;SDS011;56427;51.580;4.656;2022-07-29T11:57:49;6.72;;;2.05;;
69305;SDS011;56427;51.580;4.656;2022-07-29T12:00:23;5.00;;;1.73;;
69305;SDS011;56427;51.580;4.656;2022-07-29T12:02:52;6.20;;;2.00;;
69305;SDS011;56427;51.580;4.656;2022-07-29T12:05:18;5.53;;;1.95;;
69305;SDS011;56427;51.580;4.656;2022-07-29T12:07:44;8.03;;;2.40;;
69305;SDS011;56427;51.580;4.656;2022-07-29T12:10:10;5.05;;;2.42;;
69305;SDS011;56427;51.580;4.656;2022-07-29T12:12:35;9.55;;;3.00;;
69305;SDS011;56427;51.580;4.656;2022-07-29T12:15:14;7.03;;;2.90;;
69305;SDS011;56427;51.580;4.656;2022-07-29T12:17:42;8.60;;;2.50;;
69305;SDS011;56427;51.580;4.656;2022-07-29T12:20:08;5.57;;;2.67;;
69305;SDS011;56427;51.580;4.656;2022-07-29T12:22:34;9.17;;;3.20;;
69305;SDS011;56427;51.580;4.656;2022-07-29T12:25:03;8.77;;;2.70;;
69305;SDS011;56427;51.580;4.656;2022-07-29T12:27:30;7.85;;;2.30;;
69305;SDS011;56427;51.580;4.656;2022-07-29T12:30:00;8.57;;;2.17;;
69305;SDS011;56427;51.580;4.656;2022-07-29T12:32:34;5.10;;;2.05;;
69305;SDS011;56427;51.580;4.656;2022-07-29T12:35:11;6.15;;;2.50;;
69305;SDS011;56427;51.580;4.656;2022-07-29T12:37:39;9.45;;;2.67;;
69305;SDS011;56427;51.580;4.656;2022-07-29T12:40:07;8.77;;;3.03;;
69305;SDS011;56427;51.580;4.656;2022-07-29T12:42:34;7.63;;;3.10;;
69305;SDS011;56427;51.580;4.656;2022-07-29T12:45:00;5.25;;;2.83;;
69305;SDS011;56427;51.580;4.656;2022-07-29T12:47:27;6.85;;;3.10;;
69305;SDS011;56427;51.580;4.656;2022-07-29T12:50:11;6.90;;;2.35;;
69305;SDS011;56427;51.580;4.656;2022-07-29T12:52:40;4.57;;;2.40;;
69305;SDS011;56427;51.580;4.656;2022-07-29T12:55:05;7.40;;;2.17;;
69305;SDS011;56427;51.580;4.656;2022-07-29T12:57:32;6.85;;;2.00;;
69305;SDS011;56427;51.580;4.656;2022-07-29T13:00:10;6.20;;;2.28;;
69305;SDS011;56427;51.580;4.656;2022-07-29T13:02:37;7.55;;;2.67;;
69305;SDS011;56427;51.580;4.656;2022-07-29T13:05:04;9.83;;;2.43;;
69305;SDS011;56427;51.580;4.656;2022-07-29T13:07:31;7.75;;;2.17;;
69305;SDS011;56427;51.580;4.656;2022-07-29T13:12:34;5.38;;;2.28;;
69305;SDS011;56427;51.580;4.656;2022-07-29T13:15:00;5.83;;;2.90;;
69305;SDS011;56427;51.580;4.656;2022-07-29T13:17:25;5.07;;;2.20;;
69305;SDS011;56427;51.580;4.656;2022-07-29T13:20:07;7.33;;;2.53;;
69305;SDS011;56427;51.580;4.656;2022-07-29T13:22:37;5.93;;;2.53;;
69305;SDS011;56427;51.580;4.656;2022-07-29T13:25:03;7.07;;;2.78;;
69305;SDS011;56427;51.580;4.656;2022-07-29T13:27:31;5.60;;;2.33;;
69305;SDS011;56427;51.580;4.656;2022-07-29T13:29:58;8.65;;;2.60;;
69305;SDS011;56427;51.580;4.656;2022-07-29T13:32:26;6.27;;;2.03;;
69305;SDS011;56427;51.580;4.656;2022-07-29T13:34:52;7.03;;;2.83;;
69305;SDS011;56427;51.580;4.656;2022-07-29T13:37:19;5.90;;;2.35;;
69305;SDS011;56427;51.580;4.656;2022-07-29T13:39:45;6.80;;;2.50;;
69305;SDS011;56427;51.580;4.656;2022-07-29T13:42:10;5.23;;;3.10;;
69305;SDS011;56427;51.580;4.656;2022-07-29T13:44:38;6.07;;;3.17;;
69305;SDS011;56427;51.580;4.656;2022-07-29T13:47:03;8.57;;;2.63;;
69305;SDS011;56427;51.580;4.656;2022-07-29T13:49:29;5.60;;;2.33;;
69305;SDS011;56427;51.580;4.656;2022-07-29T13:51:55;6.38;;;2.75;;
69305;SDS011;56427;51.580;4.656;2022-07-29T13:54:20;8.30;;;3.57;;
69305;SDS011;56427;51.580;4.656;2022-07-29T13:56:45;7.70;;;3.27;;
69305;SDS011;56427;51.580;4.656;2022-07-29T13:59:11;6.03;;;2.50;;
69305;SDS011;56427;51.580;4.656;2022-07-29T14:01:36;10.57;;;2.53;;
69305;SDS011;56427;51.580;4.656;2022-07-29T14:04:02;5.57;;;3.03;;
69305;SDS011;56427;51.580;4.656;2022-07-29T14:06:28;5.68;;;3.33;;
69305;SDS011;56427;51.580;4.656;2022-07-29T14:08:53;11.70;;;3.00;;
69305;SDS011;56427;51.580;4.656;2022-07-29T14:11:18;12.67;;;3.40;;
69305;SDS011;56427;51.580;4.656;2022-07-29T14:13:44;6.63;;;2.53;;
69305;SDS011;56427;51.580;4.656;2022-07-29T14:16:09;9.33;;;2.90;;
69305;SDS011;56427;51.580;4.656;2022-07-29T14:18:35;5.18;;;2.47;;
69305;SDS011;56427;51.580;4.656;2022-07-29T14:21:00;6.40;;;2.60;;
69305;SDS011;56427;51.580;4.656;2022-07-29T14:23:25;5.87;;;2.70;;
69305;SDS011;56427;51.580;4.656;2022-07-29T14:25:51;8.33;;;3.20;;
69305;SDS011;56427;51.580;4.656;2022-07-29T14:28:16;6.40;;;2.90;;
69305;SDS011;56427;51.580;4.656;2022-07-29T14:30:41;8.00;;;2.92;;
69305;SDS011;56427;51.580;4.656;2022-07-29T14:33:07;7.87;;;2.83;;
69305;SDS011;56427;51.580;4.656;2022-07-29T14:35:33;8.63;;;3.37;;
69305;SDS011;56427;51.580;4.656;2022-07-29T14:37:58;8.57;;;2.88;;
69305;SDS011;56427;51.580;4.656;2022-07-29T14:40:23;8.80;;;3.40;;
69305;SDS011;56427;51.580;4.656;2022-07-29T14:42:50;6.35;;;3.30;;
69305;SDS011;56427;51.580;4.656;2022-07-29T14:45:16;7.03;;;2.90;;
69305;SDS011;56427;51.580;4.656;2022-07-29T14:47:41;7.90;;;3.27;;
69305;SDS011;56427;51.580;4.656;2022-07-29T14:50:07;9.60;;;3.27;;
69305;SDS011;56427;51.580;4.656;2022-07-29T14:52:32;7.65;;;2.92;;
69305;SDS011;56427;51.580;4.656;2022-07-29T14:54:58;10.40;;;2.97;;
69305;SDS011;56427;51.580;4.656;2022-07-29T14:57:23;6.77;;;3.00;;
69305;SDS011;56427;51.580;4.656;2022-07-29T14:59:48;8.55;;;2.75;;
69305;SDS011;56427;51.580;4.656;2022-07-29T15:02:14;6.73;;;3.10;;
69305;SDS011;56427;51.580;4.656;2022-07-29T15:04:39;5.57;;;2.60;;
69305;SDS011;56427;51.580;4.656;2022-07-29T15:07:04;8.73;;;3.60;;
69305;SDS011;56427;51.580;4.656;2022-07-29T15:09:30;7.13;;;2.60;;
69305;SDS011;56427;51.580;4.656;2022-07-29T15:11:55;6.37;;;2.57;;
69305;SDS011;56427;51.580;4.656;2022-07-29T15:14:20;8.35;;;2.72;;
69305;SDS011;56427;51.580;4.656;2022-07-29T15:16:46;8.07;;;3.13;;
69305;SDS011;56427;51.580;4.656;2022-07-29T15:19:11;7.40;;;3.27;;
69305;SDS011;56427;51.580;4.656;2022-07-29T15:21:37;7.33;;;2.57;;
69305;SDS011;56427;51.580;4.656;2022-07-29T15:24:03;6.70;;;2.30;;
69305;SDS011;56427;51.580;4.656;2022-07-29T15:26:28;7.97;;;2.80;;
69305;SDS011;56427;51.580;4.656;2022-07-29T15:28:54;12.60;;;3.13;;
69305;SDS011;56427;51.580;4.656;2022-07-29T15:31:20;6.85;;;2.55;;
69305;SDS011;56427;51.580;4.656;2022-07-29T15:33:46;5.37;;;2.73;;
69305;SDS011;56427;51.580;4.656;2022-07-29T15:36:12;7.57;;;2.87;;
69305;SDS011;56427;51.580;4.656;2022-07-29T15:38:38;7.45;;;2.40;;
69305;SDS011;56427;51.580;4.656;2022-07-29T15:41:05;7.57;;;2.42;;
69305;SDS011;56427;51.580;4.656;2022-07-29T15:43:31;9.20;;;2.73;;
69305;SDS011;56427;51.580;4.656;2022-07-29T15:45:56;5.70;;;2.70;;